sensor_id;sensor_type;location;lat;lon;timestamp;pressure;altitude;pressure_sealevel;temperature;humidity
59939;BME280;45801;51.810;19.444;2023-08-21T00:00:08;99583.76;;;23.27;66.91
59939;BME280;45801;51.810;19.444;2023-08-21T00:02:35;99584.29;;;23.26;66.98
59939;BME280;45801;51.810;19.444;2023-08-21T00:05:01;99587.49;;;23.27;67.34
59939;BME280;45801;51.810;19.444;2023-08-21T00:07:28;99588.21;;;23.28;67.02
59939;BME280;45801;51.810;19.444;2023-08-21T00:09:54;99581.60;;;23.30;67.20
59939;BME280;45801;51.810;19.444;2023-08-21T00:12:21;99579.27;;;23.31;67.17
59939;BME280;45801;51.810;19.444;2023-08-21T00:14:48;99578.75;;;23.26;67.17
59939;BME280;45801;51.810;19.444;2023-08-21T00:17:14;99576.27;;;23.15;67.52
59939;BME280;45801;51.810;19.444;2023-08-21T00:19:41;99578.40;;;23.04;67.67
59939;BME280;45801;51.810;19.444;2023-08-21T00:22:07;99574.48;;;22.93;68.11
59939;BME280;45801;51.810;19.444;2023-08-21T00:24:34;99577.71;;;22.84;68.70
59939;BME280;45801;51.810;19.444;2023-08-21T00:27:00;99575.04;;;22.74;69.16
59939;BME280;45801;51.810;19.444;2023-08-21T00:29:27;99576.29;;;22.66;69.43
59939;BME280;45801;51.810;19.444;2023-08-21T00:31:54;99574.14;;;22.58;69.87
59939;BME280;45801;51.810;19.444;2023-08-21T00:34:20;99577.71;;;22.52;70.39
59939;BME280;45801;51.810;19.444;2023-08-21T00:36:47;99578.96;;;22.49;70.18
59939;BME280;45801;51.810;19.444;2023-08-21T00:39:14;99578.96;;;22.45;70.38
59939;BME280;45801;51.810;19.444;2023-08-21T00:41:41;99581.83;;;22.42;70.64
59939;BME280;45801;51.810;19.444;2023-08-21T00:44:08;99583.06;;;22.37;70.91
59939;BME280;45801;51.810;19.444;2023-08-21T00:46:35;99582.54;;;22.34;71.11
59939;BME280;45801;51.810;19.444;2023-08-21T00:49:04;99585.36;;;22.31;71.22
59939;BME280;45801;51.810;19.444;2023-08-21T00:51:30;99584.98;;;22.26;71.49
59939;BME280;45801;51.810;19.444;2023-08-21T00:53:57;99579.98;;;22.24;71.31
59939;BME280;45801;51.810;19.444;2023-08-21T00:56:25;99578.02;;;22.23;71.56
59939;BME280;45801;51.810;19.444;2023-08-21T00:58:51;99577.30;;;22.20;71.81
59939;BME280;45801;51.810;19.444;2023-08-21T01:01:19;99578.91;;;22.17;71.86
59939;BME280;45801;51.810;19.444;2023-08-21T01:03:49;99580.67;;;22.14;71.95
59939;BME280;45801;51.810;19.444;2023-08-21T01:06:19;99581.91;;;22.11;72.09
59939;BME280;45801;51.810;19.444;2023-08-21T01:12:06;99575.30;;;22.06;72.76
59939;BME280;45801;51.810;19.444;2023-08-21T01:14:58;99569.60;;;22.04;72.72
59939;BME280;45801;51.810;19.444;2023-08-21T01:17:28;99567.09;;;22.03;72.75
59939;BME280;45801;51.810;19.444;2023-08-21T01:19:56;99559.96;;;22.02;72.54
59939;BME280;45801;51.810;19.444;2023-08-21T01:22:27;99558.89;;;22.01;72.55
59939;BME280;45801;51.810;19.444;2023-08-21T01:24:54;99564.06;;;22.01;72.83
59939;BME280;45801;51.810;19.444;2023-08-21T01:27:21;99566.73;;;21.97;73.39
59939;BME280;45801;51.810;19.444;2023-08-21T01:29:48;99570.99;;;21.93;73.48
59939;BME280;45801;51.810;19.444;2023-08-21T01:32:22;99571.51;;;21.88;73.67
59939;BME280;45801;51.810;19.444;2023-08-21T01:34:55;99562.07;;;21.85;73.52
59939;BME280;45801;51.810;19.444;2023-08-21T01:37:24;99561.52;;;21.84;73.63
59939;BME280;45801;51.810;19.444;2023-08-21T01:39:50;99558.31;;;21.84;73.96
59939;BME280;45801;51.810;19.444;2023-08-21T01:42:17;99554.92;;;21.83;73.95
59939;BME280;45801;51.810;19.444;2023-08-21T01:44:44;99557.59;;;21.83;73.72
59939;BME280;45801;51.810;19.444;2023-08-21T01:47:12;99557.23;;;21.81;73.97
59939;BME280;45801;51.810;19.444;2023-08-21T01:49:38;99562.23;;;21.80;73.78
59939;BME280;45801;51.810;19.444;2023-08-21T01:52:05;99557.21;;;21.79;73.86
59939;BME280;45801;51.810;19.444;2023-08-21T01:54:32;99556.33;;;21.78;74.16
59939;BME280;45801;51.810;19.444;2023-08-21T01:56:58;99559.17;;;21.75;74.42
59939;BME280;45801;51.810;19.444;2023-08-21T01:59:25;99562.73;;;21.72;74.53
59939;BME280;45801;51.810;19.444;2023-08-21T02:01:52;99558.63;;;21.70;74.55
59939;BME280;45801;51.810;19.444;2023-08-21T02:04:18;99559.52;;;21.69;74.78
59939;BME280;45801;51.810;19.444;2023-08-21T02:06:45;99553.27;;;21.68;74.67
59939;BME280;45801;51.810;19.444;2023-08-21T02:09:11;99557.53;;;21.67;74.86
59939;BME280;45801;51.810;19.444;2023-08-21T02:11:38;99556.11;;;21.64;75.24
59939;BME280;45801;51.810;19.444;2023-08-21T02:14:05;99558.60;;;21.62;74.85
59939;BME280;45801;51.810;19.444;2023-08-21T02:16:32;99564.48;;;21.61;74.92
59939;BME280;45801;51.810;19.444;2023-08-21T02:18:59;99565.89;;;21.59;75.36
59939;BME280;45801;51.810;19.444;2023-08-21T02:21:25;99569.27;;;21.58;75.23
59939;BME280;45801;51.810;19.444;2023-08-21T02:23:52;99571.05;;;21.58;75.54
59939;BME280;45801;51.810;19.444;2023-08-21T02:26:18;99570.52;;;21.58;75.56
59939;BME280;45801;51.810;19.444;2023-08-21T02:28:46;99567.48;;;21.58;75.78
59939;BME280;45801;51.810;19.444;2023-08-21T02:31:13;99560.70;;;21.57;75.41
59939;BME280;45801;51.810;19.444;2023-08-21T02:33:39;99559.64;;;21.57;75.73
59939;BME280;45801;51.810;19.444;2023-08-21T02:36:06;99563.02;;;21.57;75.60
59939;BME280;45801;51.810;19.444;2023-08-21T02:38:33;99563.38;;;21.55;75.51
59939;BME280;45801;51.810;19.444;2023-08-21T02:41:00;99557.48;;;21.53;75.76
59939;BME280;45801;51.810;19.444;2023-08-21T02:43:27;99553.38;;;21.52;76.08
59939;BME280;45801;51.810;19.444;2023-08-21T02:45:53;99545.52;;;21.50;76.14
59939;BME280;45801;51.810;19.444;2023-08-21T02:48:20;99544.42;;;21.48;76.01
59939;BME280;45801;51.810;19.444;2023-08-21T02:50:46;99547.09;;;21.46;76.19
59939;BME280;45801;51.810;19.444;2023-08-21T02:53:13;99549.03;;;21.44;76.09
59939;BME280;45801;51.810;19.444;2023-08-21T02:55:40;99549.02;;;21.41;76.35
59939;BME280;45801;51.810;19.444;2023-08-21T02:58:06;99547.59;;;21.39;76.14
59939;BME280;45801;51.810;19.444;2023-08-21T03:00:33;99544.36;;;21.35;76.34
59939;BME280;45801;51.810;19.444;2023-08-21T03:03:00;99541.33;;;21.33;76.20
59939;BME280;45801;51.810;19.444;2023-08-21T03:05:27;99538.46;;;21.30;76.30
59939;BME280;45801;51.810;19.444;2023-08-21T03:07:53;99540.42;;;21.28;76.02
59939;BME280;45801;51.810;19.444;2023-08-21T03:10:20;99539.33;;;21.27;76.04
59939;BME280;45801;51.810;19.444;2023-08-21T03:12:47;99539.86;;;21.26;76.40
59939;BME280;45801;51.810;19.444;2023-08-21T03:15:13;99548.21;;;21.24;76.60
59939;BME280;45801;51.810;19.444;2023-08-21T03:17:40;99559.42;;;21.20;76.88
59939;BME280;45801;51.810;19.444;2023-08-21T03:20:07;99566.89;;;21.16;77.23
59939;BME280;45801;51.810;19.444;2023-08-21T03:22:34;99569.55;;;21.13;77.00
59939;BME280;45801;51.810;19.444;2023-08-21T03:25:01;99572.20;;;21.09;77.52
59939;BME280;45801;51.810;19.444;2023-08-21T03:27:27;99579.86;;;21.08;77.50
59939;BME280;45801;51.810;19.444;2023-08-21T03:29:54;99583.41;;;21.08;77.79
59939;BME280;45801;51.810;19.444;2023-08-21T03:32:21;99583.21;;;21.07;77.77
59939;BME280;45801;51.810;19.444;2023-08-21T03:34:47;99588.38;;;21.07;77.94
59939;BME280;45801;51.810;19.444;2023-08-21T03:37:14;99594.27;;;21.07;78.15
59939;BME280;45801;51.810;19.444;2023-08-21T03:39:40;99594.98;;;21.08;78.24
59939;BME280;45801;51.810;19.444;2023-08-21T03:42:07;99602.27;;;21.07;78.31
59939;BME280;45801;51.810;19.444;2023-08-21T03:44:33;99598.36;;;21.07;78.56
59939;BME280;45801;51.810;19.444;2023-08-21T03:47:00;99593.73;;;21.06;78.32
59939;BME280;45801;51.810;19.444;2023-08-21T03:49:27;99596.77;;;21.07;78.48
59939;BME280;45801;51.810;19.444;2023-08-21T03:51:53;99597.11;;;21.07;78.51
59939;BME280;45801;51.810;19.444;2023-08-21T03:54:21;99597.83;;;21.07;78.82
59939;BME280;45801;51.810;19.444;2023-08-21T03:56:47;99598.36;;;21.08;78.75
59939;BME280;45801;51.810;19.444;2023-08-21T03:59:14;99596.60;;;21.09;79.11
59939;BME280;45801;51.810;19.444;2023-08-21T04:01:41;99589.13;;;21.12;79.06
59939;BME280;45801;51.810;19.444;2023-08-21T04:04:07;99592.00;;;21.14;79.29
59939;BME280;45801;51.810;19.444;2023-08-21T04:06:34;99596.99;;;21.16;79.65
59939;BME280;45801;51.810;19.444;2023-08-21T04:09:00;99589.34;;;21.17;79.75
59939;BME280;45801;51.810;19.444;2023-08-21T04:11:28;99586.32;;;21.20;80.13
59939;BME280;45801;51.810;19.444;2023-08-21T04:14:04;99579.58;;;21.23;80.19
59939;BME280;45801;51.810;19.444;2023-08-21T04:16:31;99578.90;;;21.26;80.14
59939;BME280;45801;51.810;19.444;2023-08-21T04:18:58;99580.69;;;21.29;80.45
59939;BME280;45801;51.810;19.444;2023-08-21T04:21:25;99581.05;;;21.31;81.24
59939;BME280;45801;51.810;19.444;2023-08-21T04:23:51;99579.45;;;21.31;81.24
59939;BME280;45801;51.810;19.444;2023-08-21T04:26:19;99580.15;;;21.31;81.30
59939;BME280;45801;51.810;19.444;2023-08-21T04:28:46;99591.21;;;21.32;81.64
59939;BME280;45801;51.810;19.444;2023-08-21T04:31:12;99599.77;;;21.34;82.01
59939;BME280;45801;51.810;19.444;2023-08-21T04:33:40;99597.09;;;21.33;82.11
59939;BME280;45801;51.810;19.444;2023-08-21T04:36:06;99594.06;;;21.32;81.83
59939;BME280;45801;51.810;19.444;2023-08-21T04:38:38;99595.84;;;21.32;82.06
59939;BME280;45801;51.810;19.444;2023-08-21T04:41:06;99597.80;;;21.32;82.08
59939;BME280;45801;51.810;19.444;2023-08-21T04:43:34;99598.73;;;21.37;81.90
59939;BME280;45801;51.810;19.444;2023-08-21T04:46:01;99595.54;;;21.41;82.22
59939;BME280;45801;51.810;19.444;2023-08-21T04:48:27;99593.40;;;21.44;82.11
59939;BME280;45801;51.810;19.444;2023-08-21T04:50:54;99597.88;;;21.44;82.10
59939;BME280;45801;51.810;19.444;2023-08-21T04:53:20;99602.86;;;21.45;82.51
59939;BME280;45801;51.810;19.444;2023-08-21T04:55:47;99610.89;;;21.46;82.29
59939;BME280;45801;51.810;19.444;2023-08-21T04:58:13;99619.08;;;21.46;82.26
59939;BME280;45801;51.810;19.444;2023-08-21T05:00:40;99625.31;;;21.44;82.79
59939;BME280;45801;51.810;19.444;2023-08-21T05:03:06;99635.11;;;21.44;83.10
59939;BME280;45801;51.810;19.444;2023-08-21T05:05:35;99643.84;;;21.44;82.98
59939;BME280;45801;51.810;19.444;2023-08-21T05:08:02;99651.48;;;21.42;83.16
59939;BME280;45801;51.810;19.444;2023-08-21T05:10:29;99663.42;;;21.41;83.34
59939;BME280;45801;51.810;19.444;2023-08-21T05:12:57;99691.04;;;21.40;84.20
59939;BME280;45801;51.810;19.444;2023-08-21T05:15:23;99717.03;;;21.37;84.58
59939;BME280;45801;51.810;19.444;2023-08-21T05:17:50;99730.91;;;21.35;83.72
59939;BME280;45801;51.810;19.444;2023-08-21T05:20:16;99729.13;;;21.34;84.32
59939;BME280;45801;51.810;19.444;2023-08-21T05:22:44;99733.58;;;21.33;84.50
59939;BME280;45801;51.810;19.444;2023-08-21T05:25:10;99735.35;;;21.32;84.00
59939;BME280;45801;51.810;19.444;2023-08-21T05:27:37;99736.77;;;21.31;83.78
59939;BME280;45801;51.810;19.444;2023-08-21T05:30:04;99752.79;;;21.29;84.03
59939;BME280;45801;51.810;19.444;2023-08-21T05:32:30;99762.03;;;21.27;84.22
59939;BME280;45801;51.810;19.444;2023-08-21T05:34:57;99767.36;;;21.26;83.76
59939;BME280;45801;51.810;19.444;2023-08-21T05:37:23;99769.52;;;21.26;83.69
59939;BME280;45801;51.810;19.444;2023-08-21T05:39:50;99776.27;;;21.26;83.61
59939;BME280;45801;51.810;19.444;2023-08-21T05:42:16;99781.08;;;21.25;83.65
59939;BME280;45801;51.810;19.444;2023-08-21T05:44:43;99778.20;;;21.22;83.96
59939;BME280;45801;51.810;19.444;2023-08-21T05:47:09;99765.70;;;21.19;83.63
59939;BME280;45801;51.810;19.444;2023-08-21T05:49:36;99743.96;;;21.17;83.45
59939;BME280;45801;51.810;19.444;2023-08-21T05:52:02;99737.19;;;21.16;82.99
59939;BME280;45801;51.810;19.444;2023-08-21T05:54:29;99747.16;;;21.17;82.63
59939;BME280;45801;51.810;19.444;2023-08-21T05:56:57;99742.88;;;21.16;82.49
59939;BME280;45801;51.810;19.444;2023-08-21T05:59:29;99733.08;;;21.15;82.56
59939;BME280;45801;51.810;19.444;2023-08-21T06:01:56;99726.45;;;21.11;82.64
59939;BME280;45801;51.810;19.444;2023-08-21T06:04:22;99726.77;;;21.08;83.19
59939;BME280;45801;51.810;19.444;2023-08-21T06:06:49;99731.02;;;21.06;83.24
59939;BME280;45801;51.810;19.444;2023-08-21T06:09:15;99736.52;;;21.02;83.37
59939;BME280;45801;51.810;19.444;2023-08-21T06:11:43;99741.14;;;20.99;83.46
59939;BME280;45801;51.810;19.444;2023-08-21T06:14:10;99736.14;;;20.99;83.46
59939;BME280;45801;51.810;19.444;2023-08-21T06:16:36;99742.02;;;20.99;83.47
59939;BME280;45801;51.810;19.444;2023-08-21T06:19:03;99744.49;;;20.99;83.28
59939;BME280;45801;51.810;19.444;2023-08-21T06:21:29;99738.29;;;21.00;83.66
59939;BME280;45801;51.810;19.444;2023-08-21T06:23:56;99735.29;;;21.03;83.64
59939;BME280;45801;51.810;19.444;2023-08-21T06:26:22;99730.85;;;21.06;83.82
59939;BME280;45801;51.810;19.444;2023-08-21T06:28:49;99726.95;;;21.07;83.40
59939;BME280;45801;51.810;19.444;2023-08-21T06:31:15;99735.52;;;21.08;83.27
59939;BME280;45801;51.810;19.444;2023-08-21T06:33:42;99735.34;;;21.09;83.45
59939;BME280;45801;51.810;19.444;2023-08-21T06:36:08;99734.44;;;21.08;83.60
59939;BME280;45801;51.810;19.444;2023-08-21T06:38:35;99730.88;;;21.08;83.75
59939;BME280;45801;51.810;19.444;2023-08-21T06:41:02;99728.91;;;21.08;84.31
59939;BME280;45801;51.810;19.444;2023-08-21T06:43:28;99727.49;;;21.09;84.88
59939;BME280;45801;51.810;19.444;2023-08-21T06:45:55;99721.61;;;21.08;85.48
59939;BME280;45801;51.810;19.444;2023-08-21T06:48:21;99721.97;;;21.08;85.82
59939;BME280;45801;51.810;19.444;2023-08-21T06:50:48;99720.88;;;21.05;86.29
59939;BME280;45801;51.810;19.444;2023-08-21T06:53:14;99719.44;;;21.04;86.25
59939;BME280;45801;51.810;19.444;2023-08-21T06:55:41;99719.98;;;21.05;86.28
59939;BME280;45801;51.810;19.444;2023-08-21T06:58:08;99721.96;;;21.07;86.27
59939;BME280;45801;51.810;19.444;2023-08-21T07:00:34;99723.59;;;21.10;86.41
59939;BME280;45801;51.810;19.444;2023-08-21T07:03:01;99725.76;;;21.14;86.71
59939;BME280;45801;51.810;19.444;2023-08-21T07:05:29;99728.47;;;21.19;86.57
59939;BME280;45801;51.810;19.444;2023-08-21T07:07:55;99724.44;;;21.26;86.77
59939;BME280;45801;51.810;19.444;2023-08-21T07:10:22;99720.04;;;21.33;87.22
59939;BME280;45801;51.810;19.444;2023-08-21T07:12:49;99721.36;;;21.43;86.75
59939;BME280;45801;51.810;19.444;2023-08-21T07:15:15;99717.68;;;21.50;86.19
59939;BME280;45801;51.810;19.444;2023-08-21T07:17:42;99718.77;;;21.52;84.51
59939;BME280;45801;51.810;19.444;2023-08-21T07:20:09;99717.38;;;21.54;84.21
59939;BME280;45801;51.810;19.444;2023-08-21T07:22:37;99715.09;;;21.61;84.72
59939;BME280;45801;51.810;19.444;2023-08-21T07:25:04;99716.55;;;21.65;83.02
59939;BME280;45801;51.810;19.444;2023-08-21T07:27:31;99716.20;;;21.67;82.31
59939;BME280;45801;51.810;19.444;2023-08-21T07:29:58;99715.68;;;21.68;82.84
59939;BME280;45801;51.810;19.444;2023-08-21T07:32:24;99714.62;;;21.70;82.57
59939;BME280;45801;51.810;19.444;2023-08-21T07:34:54;99714.11;;;21.74;81.44
59939;BME280;45801;51.810;19.444;2023-08-21T07:37:20;99716.79;;;21.75;80.38
59939;BME280;45801;51.810;19.444;2023-08-21T07:39:47;99716.96;;;21.75;80.70
59939;BME280;45801;51.810;19.444;2023-08-21T07:42:14;99714.81;;;21.74;79.33
59939;BME280;45801;51.810;19.444;2023-08-21T07:44:40;99713.55;;;21.71;78.56
59939;BME280;45801;51.810;19.444;2023-08-21T07:47:07;99714.27;;;21.72;79.27
59939;BME280;45801;51.810;19.444;2023-08-21T07:49:35;99717.16;;;21.81;79.81
59939;BME280;45801;51.810;19.444;2023-08-21T07:52:03;99716.52;;;21.94;79.39
59939;BME280;45801;51.810;19.444;2023-08-21T07:54:30;99713.55;;;22.07;78.31
59939;BME280;45801;51.810;19.444;2023-08-21T07:56:58;99712.36;;;22.21;78.80
59939;BME280;45801;51.810;19.444;2023-08-21T07:59:24;99709.78;;;22.38;78.93
59939;BME280;45801;51.810;19.444;2023-08-21T08:01:51;99708.38;;;22.50;77.91
59939;BME280;45801;51.810;19.444;2023-08-21T08:04:18;99708.03;;;22.52;75.63
59939;BME280;45801;51.810;19.444;2023-08-21T08:06:44;99708.23;;;22.57;76.00
59939;BME280;45801;51.810;19.444;2023-08-21T08:09:11;99706.09;;;22.65;76.43
59939;BME280;45801;51.810;19.444;2023-08-21T08:11:37;99704.33;;;22.78;76.39
59939;BME280;45801;51.810;19.444;2023-08-21T08:14:04;99701.66;;;22.88;75.09
59939;BME280;45801;51.810;19.444;2023-08-21T08:16:31;99703.46;;;22.93;73.60
59939;BME280;45801;51.810;19.444;2023-08-21T08:18:58;99700.06;;;22.97;72.00
59939;BME280;45801;51.810;19.444;2023-08-21T08:21:25;99698.27;;;22.99;71.80
59939;BME280;45801;51.810;19.444;2023-08-21T08:23:51;99706.66;;;23.00;69.65
59939;BME280;45801;51.810;19.444;2023-08-21T08:26:18;99718.09;;;23.00;70.73
59939;BME280;45801;51.810;19.444;2023-08-21T08:28:44;99722.23;;;23.03;71.65
59939;BME280;45801;51.810;19.444;2023-08-21T08:31:18;99727.60;;;23.09;71.46
59939;BME280;45801;51.810;19.444;2023-08-21T08:33:45;99731.36;;;23.14;70.35
59939;BME280;45801;51.810;19.444;2023-08-21T08:36:12;99729.21;;;23.20;71.25
59939;BME280;45801;51.810;19.444;2023-08-21T08:38:38;99726.00;;;23.26;71.34
59939;BME280;45801;51.810;19.444;2023-08-21T08:41:11;99717.42;;;23.33;71.01
59939;BME280;45801;51.810;19.444;2023-08-21T08:43:41;99716.88;;;23.34;69.71
59939;BME280;45801;51.810;19.444;2023-08-21T08:46:08;99715.27;;;23.37;70.10
59939;BME280;45801;51.810;19.444;2023-08-21T08:48:36;99714.91;;;23.43;70.55
59939;BME280;45801;51.810;19.444;2023-08-21T08:51:04;99715.27;;;23.50;69.83
59939;BME280;45801;51.810;19.444;2023-08-21T08:53:30;99717.04;;;23.56;69.40
59939;BME280;45801;51.810;19.444;2023-08-21T08:55:58;99712.75;;;23.61;69.57
59939;BME280;45801;51.810;19.444;2023-08-21T08:58:24;99707.02;;;23.65;68.58
59939;BME280;45801;51.810;19.444;2023-08-21T09:00:51;99705.21;;;23.69;66.80
59939;BME280;45801;51.810;19.444;2023-08-21T09:03:17;99707.52;;;23.73;66.91
59939;BME280;45801;51.810;19.444;2023-08-21T09:05:44;99699.98;;;23.78;66.53
59939;BME280;45801;51.810;19.444;2023-08-21T09:08:12;99700.34;;;23.81;65.26
59939;BME280;45801;51.810;19.444;2023-08-21T09:10:41;99700.17;;;23.83;64.56
59939;BME280;45801;51.810;19.444;2023-08-21T09:15:38;99704.29;;;23.90;62.11
59939;BME280;45801;51.810;19.444;2023-08-21T09:18:09;99708.39;;;23.92;61.38
59939;BME280;45801;51.810;19.444;2023-08-21T09:20:36;99711.98;;;23.93;61.15
59939;BME280;45801;51.810;19.444;2023-08-21T09:23:02;99710.88;;;23.98;62.30
59939;BME280;45801;51.810;19.444;2023-08-21T09:25:35;99707.09;;;24.07;63.73
59939;BME280;45801;51.810;19.444;2023-08-21T09:28:08;99703.65;;;24.16;64.15
59939;BME280;45801;51.810;19.444;2023-08-21T09:30:51;99700.74;;;24.25;63.36
59939;BME280;45801;51.810;19.444;2023-08-21T09:33:23;99695.52;;;24.31;61.60
59939;BME280;45801;51.810;19.444;2023-08-21T09:35:53;99692.46;;;24.35;60.75
59939;BME280;45801;51.810;19.444;2023-08-21T09:38:21;99694.97;;;24.34;57.46
59939;BME280;45801;51.810;19.444;2023-08-21T09:40:55;99691.57;;;24.34;58.83
59939;BME280;45801;51.810;19.444;2023-08-21T09:43:23;99692.98;;;24.36;58.42
59939;BME280;45801;51.810;19.444;2023-08-21T09:45:52;99691.89;;;24.41;58.85
59939;BME280;45801;51.810;19.444;2023-08-21T09:48:22;99689.16;;;24.47;58.77
59939;BME280;45801;51.810;19.444;2023-08-21T09:50:51;99689.48;;;24.53;56.37
59939;BME280;45801;51.810;19.444;2023-08-21T09:53:20;99689.66;;;24.59;54.79
59939;BME280;45801;51.810;19.444;2023-08-21T09:55:47;99687.81;;;24.67;56.53
59939;BME280;45801;51.810;19.444;2023-08-21T09:58:14;99686.88;;;24.74;56.19
59939;BME280;45801;51.810;19.444;2023-08-21T10:00:43;99686.48;;;24.81;57.17
59939;BME280;45801;51.810;19.444;2023-08-21T10:03:11;99684.80;;;24.88;57.11
59939;BME280;45801;51.810;19.444;2023-08-21T10:05:39;99683.86;;;24.95;56.60
59939;BME280;45801;51.810;19.444;2023-08-21T10:08:07;99684.52;;;25.02;56.81
59939;BME280;45801;51.810;19.444;2023-08-21T10:10:37;99685.19;;;25.07;55.36
59939;BME280;45801;51.810;19.444;2023-08-21T10:13:05;99683.52;;;25.12;56.37
59939;BME280;45801;51.810;19.444;2023-08-21T10:15:35;99682.77;;;25.16;54.35
59939;BME280;45801;51.810;19.444;2023-08-21T10:18:22;99683.29;;;25.18;52.57
59939;BME280;45801;51.810;19.444;2023-08-21T10:20:53;99684.14;;;25.24;53.78
59939;BME280;45801;51.810;19.444;2023-08-21T10:23:28;99681.78;;;25.29;52.78
59939;BME280;45801;51.810;19.444;2023-08-21T10:26:00;99684.80;;;25.34;53.48
59939;BME280;45801;51.810;19.444;2023-08-21T10:29:02;99686.52;;;25.41;54.44
59939;BME280;45801;51.810;19.444;2023-08-21T10:31:40;99686.45;;;25.49;53.97
59939;BME280;45801;51.810;19.444;2023-08-21T10:34:11;99682.08;;;25.56;51.99
59939;BME280;45801;51.810;19.444;2023-08-21T10:39:17;99683.27;;;25.61;50.10
59939;BME280;45801;51.810;19.444;2023-08-21T10:42:07;99681.60;;;25.67;50.03
59939;BME280;45801;51.810;19.444;2023-08-21T10:49:58;99679.17;;;25.90;51.65
59939;BME280;45801;51.810;19.444;2023-08-21T10:52:38;99677.13;;;25.97;49.70
59939;BME280;45801;51.810;19.444;2023-08-21T10:55:09;99671.15;;;26.04;48.94
59939;BME280;45801;51.810;19.444;2023-08-21T10:57:36;99669.50;;;26.06;47.22
59939;BME280;45801;51.810;19.444;2023-08-21T11:00:08;99669.42;;;26.10;48.46
59939;BME280;45801;51.810;19.444;2023-08-21T11:02:37;99665.92;;;26.19;49.12
59939;BME280;45801;51.810;19.444;2023-08-21T11:05:06;99665.97;;;26.28;49.16
59939;BME280;45801;51.810;19.444;2023-08-21T11:07:39;99667.64;;;26.38;48.87
59939;BME280;45801;51.810;19.444;2023-08-21T11:10:07;99666.79;;;26.47;49.46
59939;BME280;45801;51.810;19.444;2023-08-21T11:12:35;99671.13;;;26.57;49.46
59939;BME280;45801;51.810;19.444;2023-08-21T11:15:03;99667.58;;;26.66;48.88
59939;BME280;45801;51.810;19.444;2023-08-21T11:17:29;99663.86;;;26.76;48.29
59939;BME280;45801;51.810;19.444;2023-08-21T11:20:01;99661.02;;;26.85;47.93
59939;BME280;45801;51.810;19.444;2023-08-21T11:22:32;99656.02;;;26.94;48.36
59939;BME280;45801;51.810;19.444;2023-08-21T11:24:59;99652.09;;;27.03;47.67
59939;BME280;45801;51.810;19.444;2023-08-21T11:27:26;99652.15;;;27.11;46.90
59939;BME280;45801;51.810;19.444;2023-08-21T11:29:53;99655.45;;;27.17;46.51
59939;BME280;45801;51.810;19.444;2023-08-21T11:32:22;99645.84;;;27.21;45.54
59939;BME280;45801;51.810;19.444;2023-08-21T11:34:51;99648.13;;;27.24;43.82
59939;BME280;45801;51.810;19.444;2023-08-21T11:37:19;99647.91;;;27.26;44.18
59939;BME280;45801;51.810;19.444;2023-08-21T11:39:50;99646.38;;;27.32;44.75
59939;BME280;45801;51.810;19.444;2023-08-21T11:42:22;99644.31;;;27.26;43.33
59939;BME280;45801;51.810;19.444;2023-08-21T11:44:54;99643.95;;;27.16;43.06
59939;BME280;45801;51.810;19.444;2023-08-21T11:47:23;99646.12;;;27.05;43.21
59939;BME280;45801;51.810;19.444;2023-08-21T11:49:50;99644.15;;;26.94;44.96
59939;BME280;45801;51.810;19.444;2023-08-21T11:52:19;99643.37;;;26.87;45.58
59939;BME280;45801;51.810;19.444;2023-08-21T11:54:51;99642.30;;;26.87;46.41
59939;BME280;45801;51.810;19.444;2023-08-21T11:57:20;99644.84;;;26.85;46.02
59939;BME280;45801;51.810;19.444;2023-08-21T11:59:54;99643.23;;;26.84;46.60
59939;BME280;45801;51.810;19.444;2023-08-21T12:02:26;99641.33;;;26.90;44.50
59939;BME280;45801;51.810;19.444;2023-08-21T12:04:54;99643.69;;;27.00;45.52
59939;BME280;45801;51.810;19.444;2023-08-21T12:07:21;99643.45;;;27.14;46.26
59939;BME280;45801;51.810;19.444;2023-08-21T12:09:48;99639.27;;;27.26;45.27
59939;BME280;45801;51.810;19.444;2023-08-21T12:12:15;99640.41;;;27.35;43.41
59939;BME280;45801;51.810;19.444;2023-08-21T12:14:42;99637.99;;;27.39;43.21
59939;BME280;45801;51.810;19.444;2023-08-21T12:17:09;99638.44;;;27.44;44.06
59939;BME280;45801;51.810;19.444;2023-08-21T12:19:36;99638.48;;;27.51;44.01
59939;BME280;45801;51.810;19.444;2023-08-21T12:22:03;99639.45;;;27.57;43.83
59939;BME280;45801;51.810;19.444;2023-08-21T12:24:30;99635.30;;;27.57;42.50
59939;BME280;45801;51.810;19.444;2023-08-21T12:26:57;99636.85;;;27.61;43.89
59939;BME280;45801;51.810;19.444;2023-08-21T12:29:24;99634.40;;;27.67;43.80
59939;BME280;45801;51.810;19.444;2023-08-21T12:31:50;99631.58;;;27.73;42.71
59939;BME280;45801;51.810;19.444;2023-08-21T12:34:17;99629.27;;;27.80;43.23
59939;BME280;45801;51.810;19.444;2023-08-21T12:36:43;99629.34;;;27.85;44.32
59939;BME280;45801;51.810;19.444;2023-08-21T12:39:10;99627.69;;;27.87;41.74
59939;BME280;45801;51.810;19.444;2023-08-21T12:41:38;99625.23;;;27.84;42.26
59939;BME280;45801;51.810;19.444;2023-08-21T12:44:05;99623.34;;;27.80;42.49
59939;BME280;45801;51.810;19.444;2023-08-21T12:46:36;99615.18;;;27.74;43.24
59939;BME280;45801;51.810;19.444;2023-08-21T12:49:03;99617.77;;;27.70;44.00
59939;BME280;45801;51.810;19.444;2023-08-21T12:51:30;99617.66;;;27.66;43.17
59939;BME280;45801;51.810;19.444;2023-08-21T12:53:57;99609.73;;;27.58;41.90
59939;BME280;45801;51.810;19.444;2023-08-21T12:56:23;99614.78;;;27.49;41.24
59939;BME280;45801;51.810;19.444;2023-08-21T12:58:51;99611.61;;;27.45;42.74
59939;BME280;45801;51.810;19.444;2023-08-21T13:01:17;99614.70;;;27.44;44.74
59939;BME280;45801;51.810;19.444;2023-08-21T13:03:47;99615.22;;;27.45;44.61
59939;BME280;45801;51.810;19.444;2023-08-21T13:06:13;99610.02;;;27.43;43.19